sensor_id;sensor_type;location;lat;lon;timestamp;P1;durP1;ratioP1;P2;durP2;ratioP2
4508;SDS011;2267;48.816;9.230;2022-11-24T00:01:11;11.03;;;4.67;;
4508;SDS011;2267;48.816;9.230;2022-11-24T00:03:41;9.60;;;6.17;;
4508;SDS011;2267;48.816;9.230;2022-11-24T00:06:10;9.80;;;5.67;;
4508;SDS011;2267;48.816;9.230;2022-11-24T00:08:43;7.90;;;5.30;;
4508;SDS011;2267;48.816;9.230;2022-11-24T00:11:14;9.47;;;4.90;;
4508;SDS011;2267;48.816;9.230;2022-11-24T00:13:43;7.43;;;5.10;;
4508;SDS011;2267;48.816;9.230;2022-11-24T00:16:15;8.30;;;4.57;;
4508;SDS011;2267;48.816;9.230;2022-11-24T00:18:44;6.50;;;4.60;;
4508;SDS011;2267;48.816;9.230;2022-11-24T00:21:13;7.97;;;5.03;;
4508;SDS011;2267;48.816;9.230;2022-11-24T00:23:43;11.83;;;6.43;;
4508;SDS011;2267;48.816;9.230;2022-11-24T00:26:11;8.83;;;5.20;;
4508;SDS011;2267;48.816;9.230;2022-11-24T00:28:40;11.37;;;5.93;;
4508;SDS011;2267;48.816;9.230;2022-11-24T00:31:21;7.70;;;4.80;;
4508;SDS011;2267;48.816;9.230;2022-11-24T00:33:50;7.43;;;5.17;;
4508;SDS011;2267;48.816;9.230;2022-11-24T00:36:19;8.93;;;4.60;;
4508;SDS011;2267;48.816;9.230;2022-11-24T00:38:47;6.90;;;4.70;;
4508;SDS011;2267;48.816;9.230;2022-11-24T00:41:18;6.97;;;5.33;;
4508;SDS011;2267;48.816;9.230;2022-11-24T00:43:45;6.83;;;4.60;;
4508;SDS011;2267;48.816;9.230;2022-11-24T00:46:12;6.50;;;4.30;;
4508;SDS011;2267;48.816;9.230;2022-11-24T00:48:39;7.37;;;4.97;;
4508;SDS011;2267;48.816;9.230;2022-11-24T00:51:06;8.77;;;4.50;;
4508;SDS011;2267;48.816;9.230;2022-11-24T00:53:34;8.07;;;4.13;;
4508;SDS011;2267;48.816;9.230;2022-11-24T00:56:02;7.60;;;4.80;;
4508;SDS011;2267;48.816;9.230;2022-11-24T00:58:29;7.60;;;4.70;;
4508;SDS011;2267;48.816;9.230;2022-11-24T01:01:05;5.90;;;4.03;;
4508;SDS011;2267;48.816;9.230;2022-11-24T01:03:40;7.67;;;4.40;;
4508;SDS011;2267;48.816;9.230;2022-11-24T01:06:26;6.60;;;4.00;;
4508;SDS011;2267;48.816;9.230;2022-11-24T01:08:54;6.47;;;3.47;;
4508;SDS011;2267;48.816;9.230;2022-11-24T01:11:26;5.80;;;3.30;;
4508;SDS011;2267;48.816;9.230;2022-11-24T01:13:56;5.30;;;3.50;;
4508;SDS011;2267;48.816;9.230;2022-11-24T01:16:25;13.40;;;5.10;;
4508;SDS011;2267;48.816;9.230;2022-11-24T01:18:54;11.17;;;4.70;;
4508;SDS011;2267;48.816;9.230;2022-11-24T01:21:21;8.50;;;4.73;;
4508;SDS011;2267;48.816;9.230;2022-11-24T01:23:48;8.60;;;4.97;;
4508;SDS011;2267;48.816;9.230;2022-11-24T01:26:16;7.83;;;4.10;;
4508;SDS011;2267;48.816;9.230;2022-11-24T01:28:45;11.00;;;4.33;;
4508;SDS011;2267;48.816;9.230;2022-11-24T01:31:13;9.30;;;4.77;;
4508;SDS011;2267;48.816;9.230;2022-11-24T01:33:41;6.87;;;4.50;;
4508;SDS011;2267;48.816;9.230;2022-11-24T01:36:08;10.30;;;4.87;;
4508;SDS011;2267;48.816;9.230;2022-11-24T01:38:35;7.80;;;4.80;;
4508;SDS011;2267;48.816;9.230;2022-11-24T01:41:03;8.43;;;4.37;;
4508;SDS011;2267;48.816;9.230;2022-11-24T01:43:32;9.10;;;4.17;;
4508;SDS011;2267;48.816;9.230;2022-11-24T01:46:10;6.77;;;4.70;;
4508;SDS011;2267;48.816;9.230;2022-11-24T01:48:45;9.73;;;4.30;;
4508;SDS011;2267;48.816;9.230;2022-11-24T01:51:21;7.97;;;4.60;;
4508;SDS011;2267;48.816;9.230;2022-11-24T01:53:51;8.30;;;4.70;;
4508;SDS011;2267;48.816;9.230;2022-11-24T01:56:23;9.87;;;5.50;;
4508;SDS011;2267;48.816;9.230;2022-11-24T01:58:51;8.43;;;4.17;;
4508;SDS011;2267;48.816;9.230;2022-11-24T02:01:23;8.70;;;4.03;;
4508;SDS011;2267;48.816;9.230;2022-11-24T02:03:50;6.87;;;4.80;;
4508;SDS011;2267;48.816;9.230;2022-11-24T02:06:20;7.97;;;4.73;;
4508;SDS011;2267;48.816;9.230;2022-11-24T02:08:57;6.67;;;3.97;;
4508;SDS011;2267;48.816;9.230;2022-11-24T02:11:37;7.97;;;4.37;;
4508;SDS011;2267;48.816;9.230;2022-11-24T02:14:06;6.13;;;4.10;;
4508;SDS011;2267;48.816;9.230;2022-11-24T02:16:35;7.90;;;4.20;;
4508;SDS011;2267;48.816;9.230;2022-11-24T02:22:11;8.20;;;4.30;;
4508;SDS011;2267;48.816;9.230;2022-11-24T02:24:55;7.87;;;4.67;;
4508;SDS011;2267;48.816;9.230;2022-11-24T02:27:38;7.33;;;4.43;;
4508;SDS011;2267;48.816;9.230;2022-11-24T02:30:07;9.83;;;4.07;;
4508;SDS011;2267;48.816;9.230;2022-11-24T02:32:34;8.00;;;3.93;;
4508;SDS011;2267;48.816;9.230;2022-11-24T02:35:05;7.27;;;3.37;;
4508;SDS011;2267;48.816;9.230;2022-11-24T02:37:34;10.13;;;3.73;;
4508;SDS011;2267;48.816;9.230;2022-11-24T02:40:00;9.80;;;4.23;;
4508;SDS011;2267;48.816;9.230;2022-11-24T02:42:28;4.80;;;3.33;;
4508;SDS011;2267;48.816;9.230;2022-11-24T02:44:59;7.37;;;3.67;;
4508;SDS011;2267;48.816;9.230;2022-11-24T02:47:26;7.13;;;4.13;;
4508;SDS011;2267;48.816;9.230;2022-11-24T02:49:53;8.03;;;4.10;;
4508;SDS011;2267;48.816;9.230;2022-11-24T02:52:20;6.33;;;4.00;;
4508;SDS011;2267;48.816;9.230;2022-11-24T02:54:46;5.97;;;3.80;;
4508;SDS011;2267;48.816;9.230;2022-11-24T02:57:13;7.00;;;3.80;;
4508;SDS011;2267;48.816;9.230;2022-11-24T02:59:40;9.40;;;3.57;;
4508;SDS011;2267;48.816;9.230;2022-11-24T03:02:07;6.40;;;3.60;;
4508;SDS011;2267;48.816;9.230;2022-11-24T03:04:35;6.87;;;3.50;;
4508;SDS011;2267;48.816;9.230;2022-11-24T03:07:02;8.53;;;4.37;;
4508;SDS011;2267;48.816;9.230;2022-11-24T03:09:29;5.37;;;3.23;;
4508;SDS011;2267;48.816;9.230;2022-11-24T03:11:56;7.23;;;3.50;;
4508;SDS011;2267;48.816;9.230;2022-11-24T03:14:22;5.97;;;3.73;;
4508;SDS011;2267;48.816;9.230;2022-11-24T03:16:49;7.30;;;4.00;;
4508;SDS011;2267;48.816;9.230;2022-11-24T03:19:16;5.60;;;3.77;;
4508;SDS011;2267;48.816;9.230;2022-11-24T03:21:42;6.43;;;4.07;;
4508;SDS011;2267;48.816;9.230;2022-11-24T03:24:09;6.53;;;4.30;;
4508;SDS011;2267;48.816;9.230;2022-11-24T03:26:36;11.13;;;4.10;;
4508;SDS011;2267;48.816;9.230;2022-11-24T03:29:02;5.03;;;3.40;;
4508;SDS011;2267;48.816;9.230;2022-11-24T03:31:29;5.03;;;3.30;;
4508;SDS011;2267;48.816;9.230;2022-11-24T03:33:56;6.97;;;3.57;;
4508;SDS011;2267;48.816;9.230;2022-11-24T03:36:23;7.00;;;3.80;;
4508;SDS011;2267;48.816;9.230;2022-11-24T03:38:49;7.77;;;3.87;;
4508;SDS011;2267;48.816;9.230;2022-11-24T03:41:16;7.53;;;3.53;;
4508;SDS011;2267;48.816;9.230;2022-11-24T03:43:43;7.17;;;3.50;;
4508;SDS011;2267;48.816;9.230;2022-11-24T03:46:10;5.27;;;3.20;;
4508;SDS011;2267;48.816;9.230;2022-11-24T03:48:38;5.70;;;3.63;;
4508;SDS011;2267;48.816;9.230;2022-11-24T03:51:04;8.97;;;4.40;;
4508;SDS011;2267;48.816;9.230;2022-11-24T03:53:32;7.80;;;3.63;;
4508;SDS011;2267;48.816;9.230;2022-11-24T03:55:59;8.27;;;3.80;;
4508;SDS011;2267;48.816;9.230;2022-11-24T03:58:27;5.03;;;3.20;;
4508;SDS011;2267;48.816;9.230;2022-11-24T04:00:54;4.93;;;2.90;;
4508;SDS011;2267;48.816;9.230;2022-11-24T04:03:21;4.40;;;3.37;;
4508;SDS011;2267;48.816;9.230;2022-11-24T04:05:49;5.33;;;3.20;;
4508;SDS011;2267;48.816;9.230;2022-11-24T04:08:16;4.37;;;3.63;;
4508;SDS011;2267;48.816;9.230;2022-11-24T04:10:43;4.43;;;3.20;;
4508;SDS011;2267;48.816;9.230;2022-11-24T04:13:11;8.77;;;4.43;;
4508;SDS011;2267;48.816;9.230;2022-11-24T04:15:41;4.80;;;3.50;;
4508;SDS011;2267;48.816;9.230;2022-11-24T04:18:11;6.57;;;3.97;;
4508;SDS011;2267;48.816;9.230;2022-11-24T04:20:39;5.80;;;3.80;;
4508;SDS011;2267;48.816;9.230;2022-11-24T04:23:07;5.73;;;3.57;;
4508;SDS011;2267;48.816;9.230;2022-11-24T04:25:34;3.87;;;2.90;;
4508;SDS011;2267;48.816;9.230;2022-11-24T04:28:02;6.73;;;4.10;;
4508;SDS011;2267;48.816;9.230;2022-11-24T04:30:29;4.00;;;3.27;;
4508;SDS011;2267;48.816;9.230;2022-11-24T04:32:56;4.77;;;3.30;;
4508;SDS011;2267;48.816;9.230;2022-11-24T04:35:22;6.80;;;4.07;;
4508;SDS011;2267;48.816;9.230;2022-11-24T04:37:49;4.33;;;3.43;;
4508;SDS011;2267;48.816;9.230;2022-11-24T04:40:16;5.23;;;3.50;;
4508;SDS011;2267;48.816;9.230;2022-11-24T04:42:51;8.57;;;3.83;;
4508;SDS011;2267;48.816;9.230;2022-11-24T04:45:21;6.50;;;4.20;;
4508;SDS011;2267;48.816;9.230;2022-11-24T04:47:48;5.93;;;2.77;;
4508;SDS011;2267;48.816;9.230;2022-11-24T04:50:15;5.53;;;3.60;;
4508;SDS011;2267;48.816;9.230;2022-11-24T04:52:42;6.73;;;4.03;;
4508;SDS011;2267;48.816;9.230;2022-11-24T04:55:09;9.20;;;3.33;;
4508;SDS011;2267;48.816;9.230;2022-11-24T04:57:36;4.80;;;3.70;;
4508;SDS011;2267;48.816;9.230;2022-11-24T05:00:03;6.50;;;4.60;;
4508;SDS011;2267;48.816;9.230;2022-11-24T05:02:30;6.40;;;4.57;;
4508;SDS011;2267;48.816;9.230;2022-11-24T05:04:57;5.90;;;3.77;;
4508;SDS011;2267;48.816;9.230;2022-11-24T05:07:23;5.10;;;3.53;;
4508;SDS011;2267;48.816;9.230;2022-11-24T05:09:50;8.43;;;3.77;;
4508;SDS011;2267;48.816;9.230;2022-11-24T05:12:43;7.10;;;3.70;;
4508;SDS011;2267;48.816;9.230;2022-11-24T05:15:16;6.20;;;3.60;;
4508;SDS011;2267;48.816;9.230;2022-11-24T05:17:43;5.30;;;3.47;;
4508;SDS011;2267;48.816;9.230;2022-11-24T05:20:09;7.50;;;3.43;;
4508;SDS011;2267;48.816;9.230;2022-11-24T05:22:36;5.93;;;3.20;;
4508;SDS011;2267;48.816;9.230;2022-11-24T05:25:03;5.57;;;3.57;;
4508;SDS011;2267;48.816;9.230;2022-11-24T05:27:30;5.37;;;3.43;;
4508;SDS011;2267;48.816;9.230;2022-11-24T05:29:57;7.23;;;3.63;;
4508;SDS011;2267;48.816;9.230;2022-11-24T05:32:24;6.00;;;3.87;;
4508;SDS011;2267;48.816;9.230;2022-11-24T05:34:50;7.47;;;3.87;;
4508;SDS011;2267;48.816;9.230;2022-11-24T05:37:19;4.03;;;2.67;;
4508;SDS011;2267;48.816;9.230;2022-11-24T05:39:46;3.87;;;3.47;;
4508;SDS011;2267;48.816;9.230;2022-11-24T05:42:13;5.10;;;3.40;;
4508;SDS011;2267;48.816;9.230;2022-11-24T05:44:58;4.67;;;3.27;;
4508;SDS011;2267;48.816;9.230;2022-11-24T05:47:25;9.27;;;3.53;;
4508;SDS011;2267;48.816;9.230;2022-11-24T05:49:52;5.40;;;3.40;;
4508;SDS011;2267;48.816;9.230;2022-11-24T05:52:19;8.40;;;3.90;;
4508;SDS011;2267;48.816;9.230;2022-11-24T05:54:45;9.87;;;4.60;;
4508;SDS011;2267;48.816;9.230;2022-11-24T05:57:12;7.03;;;4.23;;
4508;SDS011;2267;48.816;9.230;2022-11-24T05:59:39;7.30;;;4.07;;
4508;SDS011;2267;48.816;9.230;2022-11-24T06:02:06;7.10;;;4.03;;
4508;SDS011;2267;48.816;9.230;2022-11-24T06:04:33;4.43;;;3.83;;
4508;SDS011;2267;48.816;9.230;2022-11-24T06:07:00;7.57;;;4.20;;
4508;SDS011;2267;48.816;9.230;2022-11-24T06:09:27;10.30;;;3.97;;
4508;SDS011;2267;48.816;9.230;2022-11-24T06:11:54;7.30;;;3.80;;
4508;SDS011;2267;48.816;9.230;2022-11-24T06:14:21;5.40;;;4.10;;
4508;SDS011;2267;48.816;9.230;2022-11-24T06:16:48;6.87;;;4.03;;
4508;SDS011;2267;48.816;9.230;2022-11-24T06:19:21;12.13;;;5.13;;
4508;SDS011;2267;48.816;9.230;2022-11-24T06:21:47;7.70;;;4.60;;
4508;SDS011;2267;48.816;9.230;2022-11-24T06:24:32;9.70;;;5.10;;
4508;SDS011;2267;48.816;9.230;2022-11-24T06:26:59;9.13;;;4.93;;
4508;SDS011;2267;48.816;9.230;2022-11-24T06:29:26;9.10;;;4.60;;
4508;SDS011;2267;48.816;9.230;2022-11-24T06:31:53;8.60;;;4.23;;
4508;SDS011;2267;48.816;9.230;2022-11-24T06:34:20;7.13;;;4.10;;
4508;SDS011;2267;48.816;9.230;2022-11-24T06:36:47;7.93;;;4.63;;
4508;SDS011;2267;48.816;9.230;2022-11-24T06:39:13;9.90;;;4.13;;
4508;SDS011;2267;48.816;9.230;2022-11-24T06:41:40;9.60;;;5.53;;
4508;SDS011;2267;48.816;9.230;2022-11-24T06:44:07;10.63;;;4.60;;
4508;SDS011;2267;48.816;9.230;2022-11-24T06:46:34;6.43;;;3.43;;
4508;SDS011;2267;48.816;9.230;2022-11-24T06:49:00;10.30;;;5.17;;
4508;SDS011;2267;48.816;9.230;2022-11-24T06:51:28;12.10;;;4.50;;
4508;SDS011;2267;48.816;9.230;2022-11-24T06:53:54;9.23;;;3.63;;
4508;SDS011;2267;48.816;9.230;2022-11-24T06:56:21;9.47;;;4.50;;
4508;SDS011;2267;48.816;9.230;2022-11-24T06:58:49;8.33;;;3.60;;
4508;SDS011;2267;48.816;9.230;2022-11-24T07:01:21;8.60;;;3.90;;
4508;SDS011;2267;48.816;9.230;2022-11-24T07:03:50;7.70;;;3.47;;
4508;SDS011;2267;48.816;9.230;2022-11-24T07:06:18;10.30;;;4.50;;
4508;SDS011;2267;48.816;9.230;2022-11-24T07:08:45;6.83;;;3.53;;
4508;SDS011;2267;48.816;9.230;2022-11-24T07:11:13;7.50;;;4.00;;
4508;SDS011;2267;48.816;9.230;2022-11-24T07:13:42;7.97;;;3.83;;
4508;SDS011;2267;48.816;9.230;2022-11-24T07:16:11;8.50;;;4.70;;
4508;SDS011;2267;48.816;9.230;2022-11-24T07:18:43;7.33;;;4.37;;
4508;SDS011;2267;48.816;9.230;2022-11-24T07:21:10;9.53;;;3.87;;
4508;SDS011;2267;48.816;9.230;2022-11-24T07:23:37;6.70;;;4.53;;
4508;SDS011;2267;48.816;9.230;2022-11-24T07:26:04;4.60;;;3.00;;
4508;SDS011;2267;48.816;9.230;2022-11-24T07:28:33;5.47;;;3.27;;
4508;SDS011;2267;48.816;9.230;2022-11-24T07:31:05;7.10;;;3.80;;
4508;SDS011;2267;48.816;9.230;2022-11-24T07:33:36;6.60;;;3.87;;
4508;SDS011;2267;48.816;9.230;2022-11-24T07:36:04;8.30;;;4.10;;
4508;SDS011;2267;48.816;9.230;2022-11-24T07:38:32;9.03;;;3.97;;
4508;SDS011;2267;48.816;9.230;2022-11-24T07:41:03;7.47;;;4.17;;
4508;SDS011;2267;48.816;9.230;2022-11-24T07:43:32;8.33;;;3.70;;
4508;SDS011;2267;48.816;9.230;2022-11-24T07:46:00;9.10;;;4.23;;
4508;SDS011;2267;48.816;9.230;2022-11-24T07:48:27;11.60;;;5.07;;
4508;SDS011;2267;48.816;9.230;2022-11-24T07:50:57;8.07;;;4.20;;
4508;SDS011;2267;48.816;9.230;2022-11-24T07:53:25;8.73;;;4.23;;
4508;SDS011;2267;48.816;9.230;2022-11-24T07:55:53;7.57;;;4.10;;
4508;SDS011;2267;48.816;9.230;2022-11-24T07:58:21;10.27;;;5.17;;
4508;SDS011;2267;48.816;9.230;2022-11-24T08:00:54;7.13;;;4.37;;
4508;SDS011;2267;48.816;9.230;2022-11-24T08:03:21;8.80;;;4.97;;
4508;SDS011;2267;48.816;9.230;2022-11-24T08:05:54;13.77;;;5.13;;
4508;SDS011;2267;48.816;9.230;2022-11-24T08:08:45;26.50;;;6.30;;
4508;SDS011;2267;48.816;9.230;2022-11-24T08:11:13;9.83;;;3.87;;
4508;SDS011;2267;48.816;9.230;2022-11-24T08:13:41;8.17;;;3.70;;
4508;SDS011;2267;48.816;9.230;2022-11-24T08:16:09;6.13;;;3.10;;
4508;SDS011;2267;48.816;9.230;2022-11-24T08:18:38;6.00;;;2.90;;
4508;SDS011;2267;48.816;9.230;2022-11-24T08:21:05;5.23;;;2.67;;
4508;SDS011;2267;48.816;9.230;2022-11-24T08:23:32;4.30;;;3.10;;
4508;SDS011;2267;48.816;9.230;2022-11-24T08:26:02;5.37;;;3.37;;
4508;SDS011;2267;48.816;9.230;2022-11-24T08:28:35;7.20;;;3.37;;
4508;SDS011;2267;48.816;9.230;2022-11-24T08:31:07;5.13;;;2.93;;
4508;SDS011;2267;48.816;9.230;2022-11-24T08:33:44;4.63;;;2.70;;
4508;SDS011;2267;48.816;9.230;2022-11-24T08:36:12;12.80;;;3.93;;
4508;SDS011;2267;48.816;9.230;2022-11-24T08:38:41;6.17;;;3.00;;
4508;SDS011;2267;48.816;9.230;2022-11-24T08:41:09;5.70;;;3.00;;
4508;SDS011;2267;48.816;9.230;2022-11-24T08:43:38;5.63;;;2.90;;
4508;SDS011;2267;48.816;9.230;2022-11-24T08:46:06;8.53;;;3.60;;
4508;SDS011;2267;48.816;9.230;2022-11-24T08:48:35;4.77;;;2.73;;
4508;SDS011;2267;48.816;9.230;2022-11-24T08:51:06;5.23;;;3.17;;
4508;SDS011;2267;48.816;9.230;2022-11-24T08:53:34;3.60;;;2.30;;
4508;SDS011;2267;48.816;9.230;2022-11-24T08:56:02;9.80;;;3.03;;
4508;SDS011;2267;48.816;9.230;2022-11-24T08:58:29;5.27;;;2.60;;
4508;SDS011;2267;48.816;9.230;2022-11-24T09:01:07;3.40;;;2.20;;
4508;SDS011;2267;48.816;9.230;2022-11-24T09:03:42;4.40;;;2.00;;
4508;SDS011;2267;48.816;9.230;2022-11-24T09:06:17;2.43;;;1.70;;
4508;SDS011;2267;48.816;9.230;2022-11-24T09:08:47;4.73;;;1.90;;
4508;SDS011;2267;48.816;9.230;2022-11-24T09:11:14;5.00;;;2.00;;
4508;SDS011;2267;48.816;9.230;2022-11-24T09:13:42;3.07;;;1.83;;
4508;SDS011;2267;48.816;9.230;2022-11-24T09:16:10;2.50;;;1.57;;
4508;SDS011;2267;48.816;9.230;2022-11-24T09:18:42;4.00;;;2.33;;
4508;SDS011;2267;48.816;9.230;2022-11-24T09:23:36;5.10;;;2.30;;
4508;SDS011;2267;48.816;9.230;2022-11-24T09:26:04;5.93;;;2.03;;
4508;SDS011;2267;48.816;9.230;2022-11-24T09:28:33;3.27;;;1.80;;
4508;SDS011;2267;48.816;9.230;2022-11-24T09:31:04;2.03;;;1.40;;
4508;SDS011;2267;48.816;9.230;2022-11-24T09:33:33;3.23;;;1.80;;
4508;SDS011;2267;48.816;9.230;2022-11-24T09:36:01;8.00;;;2.20;;
4508;SDS011;2267;48.816;9.230;2022-11-24T09:38:29;3.13;;;1.80;;
4508;SDS011;2267;48.816;9.230;2022-11-24T09:41:02;5.83;;;2.13;;
4508;SDS011;2267;48.816;9.230;2022-11-24T09:49:23;3.10;;;1.70;;
4508;SDS011;2267;48.816;9.230;2022-11-24T09:51:59;2.77;;;1.67;;
4508;SDS011;2267;48.816;9.230;2022-11-24T09:54:30;3.40;;;1.67;;
4508;SDS011;2267;48.816;9.230;2022-11-24T09:56:59;2.97;;;1.43;;
4508;SDS011;2267;48.816;9.230;2022-11-24T09:59:29;2.77;;;1.67;;
4508;SDS011;2267;48.816;9.230;2022-11-24T10:01:55;3.23;;;1.57;;
4508;SDS011;2267;48.816;9.230;2022-11-24T10:04:31;2.10;;;1.47;;
4508;SDS011;2267;48.816;9.230;2022-11-24T10:09:40;8.07;;;1.50;;
4508;SDS011;2267;48.816;9.230;2022-11-24T10:18:08;2.03;;;1.40;;
4508;SDS011;2267;48.816;9.230;2022-11-24T10:26:50;2.83;;;1.40;;
4508;SDS011;2267;48.816;9.230;2022-11-24T10:29:35;3.43;;;2.03;;
4508;SDS011;2267;48.816;9.230;2022-11-24T10:32:23;2.20;;;1.60;;
4508;SDS011;2267;48.816;9.230;2022-11-24T10:34:54;3.80;;;1.77;;
4508;SDS011;2267;48.816;9.230;2022-11-24T10:37:32;2.30;;;1.23;;
4508;SDS011;2267;48.816;9.230;2022-11-24T10:40:04;2.20;;;1.37;;
4508;SDS011;2267;48.816;9.230;2022-11-24T10:43:03;2.40;;;1.60;;
4508;SDS011;2267;48.816;9.230;2022-11-24T10:45:36;2.87;;;1.53;;
4508;SDS011;2267;48.816;9.230;2022-11-24T10:48:13;2.77;;;1.83;;
4508;SDS011;2267;48.816;9.230;2022-11-24T10:50:53;2.40;;;1.40;;
4508;SDS011;2267;48.816;9.230;2022-11-24T10:53:31;2.77;;;1.40;;
4508;SDS011;2267;48.816;9.230;2022-11-24T10:56:02;1.70;;;1.30;;
4508;SDS011;2267;48.816;9.230;2022-11-24T10:58:36;2.83;;;1.43;;
4508;SDS011;2267;48.816;9.230;2022-11-24T11:01:27;2.33;;;1.40;;
4508;SDS011;2267;48.816;9.230;2022-11-24T11:03:57;2.30;;;1.37;;
4508;SDS011;2267;48.816;9.230;2022-11-24T11:06:29;2.10;;;1.80;;
4508;SDS011;2267;48.816;9.230;2022-11-24T11:11:33;2.80;;;1.40;;
4508;SDS011;2267;48.816;9.230;2022-11-24T11:14:01;2.30;;;1.47;;
4508;SDS011;2267;48.816;9.230;2022-11-24T11:16:34;2.33;;;1.43;;
4508;SDS011;2267;48.816;9.230;2022-11-24T11:22:29;2.13;;;1.30;;
4508;SDS011;2267;48.816;9.230;2022-11-24T11:25:17;2.23;;;1.50;;
4508;SDS011;2267;48.816;9.230;2022-11-24T11:28:17;5.13;;;2.13;;
4508;SDS011;2267;48.816;9.230;2022-11-24T11:31:00;2.63;;;1.83;;
4508;SDS011;2267;48.816;9.230;2022-11-24T11:33:53;3.90;;;2.70;;
4508;SDS011;2267;48.816;9.230;2022-11-24T11:36:38;2.40;;;2.20;;
4508;SDS011;2267;48.816;9.230;2022-11-24T11:39:15;2.60;;;1.40;;
4508;SDS011;2267;48.816;9.230;2022-11-24T11:42:24;2.83;;;1.30;;
4508;SDS011;2267;48.816;9.230;2022-11-24T11:47:40;2.53;;;1.57;;
4508;SDS011;2267;48.816;9.230;2022-11-24T11:51:14;2.40;;;1.60;;
4508;SDS011;2267;48.816;9.230;2022-11-24T11:56:36;2.30;;;1.70;;
4508;SDS011;2267;48.816;9.230;2022-11-24T11:59:29;3.00;;;1.40;;
4508;SDS011;2267;48.816;9.230;2022-11-24T12:05:15;4.03;;;2.40;;
4508;SDS011;2267;48.816;9.230;2022-11-24T12:07:59;4.07;;;2.60;;
4508;SDS011;2267;48.816;9.230;2022-11-24T12:13:45;9.30;;;2.60;;
4508;SDS011;2267;48.816;9.230;2022-11-24T12:19:59;5.97;;;2.57;;
4508;SDS011;2267;48.816;9.230;2022-11-24T12:28:10;5.27;;;2.60;;
4508;SDS011;2267;48.816;9.230;2022-11-24T12:39:17;6.23;;;2.73;;
4508;SDS011;2267;48.816;9.230;2022-11-24T12:47:13;5.70;;;2.40;;
4508;SDS011;2267;48.816;9.230;2022-11-24T12:52:43;3.93;;;2.43;;
4508;SDS011;2267;48.816;9.230;2022-11-24T12:55:22;6.63;;;2.70;;
4508;SDS011;2267;48.816;9.230;2022-11-24T13:00:21;7.47;;;3.03;;
4508;SDS011;2267;48.816;9.230;2022-11-24T13:02:58;7.90;;;2.13;;
4508;SDS011;2267;48.816;9.230;2022-11-24T13:06:27;7.20;;;2.33;;
4508;SDS011;2267;48.816;9.230;2022-11-24T13:09:11;6.60;;;2.90;;
4508;SDS011;2267;48.816;9.230;2022-11-24T13:11:40;5.30;;;2.30;;
4508;SDS011;2267;48.816;9.230;2022-11-24T13:19:46;7.00;;;2.13;;
4508;SDS011;2267;48.816;9.230;2022-11-24T13:22:15;5.17;;;3.00;;
4508;SDS011;2267;48.816;9.230;2022-11-24T13:25:03;4.00;;;2.40;;
4508;SDS011;2267;48.816;9.230;2022-11-24T13:27:39;3.80;;;2.27;;
4508;SDS011;2267;48.816;9.230;2022-11-24T13:33:00;5.93;;;2.83;;
4508;SDS011;2267;48.816;9.230;2022-11-24T13:35:27;5.27;;;2.40;;
4508;SDS011;2267;48.816;9.230;2022-11-24T13:37:54;4.30;;;2.23;;
4508;SDS011;2267;48.816;9.230;2022-11-24T13:43:34;5.43;;;2.53;;
4508;SDS011;2267;48.816;9.230;2022-11-24T13:58:48;6.30;;;2.50;;
4508;SDS011;2267;48.816;9.230;2022-11-24T14:01:27;5.13;;;2.90;;
4508;SDS011;2267;48.816;9.230;2022-11-24T14:04:02;5.40;;;2.97;;
4508;SDS011;2267;48.816;9.230;2022-11-24T14:06:57;5.17;;;2.43;;
4508;SDS011;2267;48.816;9.230;2022-11-24T14:09:46;5.17;;;2.60;;
4508;SDS011;2267;48.816;9.230;2022-11-24T14:14:43;5.20;;;3.03;;
4508;SDS011;2267;48.816;9.230;2022-11-24T14:19:44;4.17;;;2.37;;
4508;SDS011;2267;48.816;9.230;2022-11-24T14:22:17;7.70;;;2.97;;
4508;SDS011;2267;48.816;9.230;2022-11-24T14:24:56;6.27;;;2.50;;
4508;SDS011;2267;48.816;9.230;2022-11-24T14:27:25;7.60;;;3.30;;
4508;SDS011;2267;48.816;9.230;2022-11-24T14:29:57;6.40;;;3.47;;
4508;SDS011;2267;48.816;9.230;2022-11-24T14:32:38;5.97;;;3.20;;
4508;SDS011;2267;48.816;9.230;2022-11-24T14:35:25;6.53;;;2.80;;
4508;SDS011;2267;48.816;9.230;2022-11-24T14:37:54;5.67;;;2.90;;
4508;SDS011;2267;48.816;9.230;2022-11-24T14:45:56;7.00;;;4.43;;
4508;SDS011;2267;48.816;9.230;2022-11-24T14:48:34;8.20;;;5.97;;
4508;SDS011;2267;48.816;9.230;2022-11-24T14:51:03;7.87;;;3.70;;
4508;SDS011;2267;48.816;9.230;2022-11-24T14:53:52;13.47;;;10.83;;
4508;SDS011;2267;48.816;9.230;2022-11-24T14:56:24;8.47;;;6.30;;
4508;SDS011;2267;48.816;9.230;2022-11-24T14:58:55;9.83;;;4.70;;
4508;SDS011;2267;48.816;9.230;2022-11-24T15:04:12;6.57;;;4.67;;
4508;SDS011;2267;48.816;9.230;2022-11-24T15:12:27;4.30;;;3.60;;
4508;SDS011;2267;48.816;9.230;2022-11-24T15:15:00;7.87;;;4.03;;
4508;SDS011;2267;48.816;9.230;2022-11-24T15:17:30;10.00;;;5.00;;
4508;SDS011;2267;48.816;9.230;2022-11-24T15:20:07;7.77;;;4.87;;
4508;SDS011;2267;48.816;9.230;2022-11-24T15:22:40;6.00;;;4.80;;
4508;SDS011;2267;48.816;9.230;2022-11-24T15:27:54;6.10;;;4.10;;
4508;SDS011;2267;48.816;9.230;2022-11-24T15:30:22;5.37;;;3.50;;
4508;SDS011;2267;48.816;9.230;2022-11-24T15:32:53;7.50;;;3.80;;
4508;SDS011;2267;48.816;9.230;2022-11-24T15:35:22;5.03;;;3.40;;
4508;SDS011;2267;48.816;9.230;2022-11-24T15:37:50;8.70;;;4.00;;
4508;SDS011;2267;48.816;9.230;2022-11-24T15:40:17;5.27;;;3.53;;
4508;SDS011;2267;48.816;9.230;2022-11-24T15:42:47;5.90;;;3.30;;
4508;SDS011;2267;48.816;9.230;2022-11-24T15:45:18;4.87;;;2.80;;
4508;SDS011;2267;48.816;9.230;2022-11-24T15:47:45;4.80;;;2.83;;
4508;SDS011;2267;48.816;9.230;2022-11-24T15:50:13;7.13;;;3.47;;
4508;SDS011;2267;48.816;9.230;2022-11-24T15:52:43;7.47;;;3.33;;
4508;SDS011;2267;48.816;9.230;2022-11-24T15:55:15;6.30;;;3.27;;
4508;SDS011;2267;48.816;9.230;2022-11-24T15:57:44;6.83;;;3.50;;
4508;SDS011;2267;48.816;9.230;2022-11-24T16:00:18;6.60;;;3.20;;
4508;SDS011;2267;48.816;9.230;2022-11-24T16:02:47;4.90;;;3.20;;
4508;SDS011;2267;48.816;9.230;2022-11-24T16:05:15;8.50;;;3.70;;
4508;SDS011;2267;48.816;9.230;2022-11-24T16:07:42;7.00;;;3.50;;
4508;SDS011;2267;48.816;9.230;2022-11-24T16:10:22;5.77;;;3.40;;
4508;SDS011;2267;48.816;9.230;2022-11-24T16:12:54;7.47;;;3.40;;
4508;SDS011;2267;48.816;9.230;2022-11-24T16:15:21;5.77;;;4.07;;
4508;SDS011;2267;48.816;9.230;2022-11-24T16:17:48;5.57;;;3.90;;
4508;SDS011;2267;48.816;9.230;2022-11-24T16:20:15;8.23;;;4.00;;
4508;SDS011;2267;48.816;9.230;2022-11-24T16:22:42;8.37;;;4.27;;
4508;SDS011;2267;48.816;9.230;2022-11-24T16:25:09;6.57;;;4.83;;
4508;SDS011;2267;48.816;9.230;2022-11-24T16:27:37;9.90;;;4.40;;
4508;SDS011;2267;48.816;9.230;2022-11-24T16:30:04;8.10;;;4.70;;
4508;SDS011;2267;48.816;9.230;2022-11-24T16:32:32;7.83;;;4.70;;
4508;SDS011;2267;48.816;9.230;2022-11-24T16:35:00;7.23;;;4.27;;
4508;SDS011;2267;48.816;9.230;2022-11-24T16:37:27;9.07;;;4.17;;
4508;SDS011;2267;48.816;9.230;2022-11-24T16:39:54;9.60;;;4.67;;
4508;SDS011;2267;48.816;9.230;2022-11-24T16:42:21;8.40;;;4.43;;
4508;SDS011;2267;48.816;9.230;2022-11-24T16:44:48;11.03;;;4.03;;
4508;SDS011;2267;48.816;9.230;2022-11-24T16:47:17;7.20;;;4.70;;
4508;SDS011;2267;48.816;9.230;2022-11-24T16:49:45;10.03;;;4.63;;
4508;SDS011;2267;48.816;9.230;2022-11-24T16:52:13;10.20;;;4.60;;
4508;SDS011;2267;48.816;9.230;2022-11-24T16:54:40;12.27;;;4.50;;
4508;SDS011;2267;48.816;9.230;2022-11-24T16:57:07;10.67;;;4.80;;
4508;SDS011;2267;48.816;9.230;2022-11-24T16:59:40;6.70;;;4.10;;
4508;SDS011;2267;48.816;9.230;2022-11-24T17:02:10;9.00;;;4.40;;
4508;SDS011;2267;48.816;9.230;2022-11-24T17:04:38;5.63;;;4.10;;
4508;SDS011;2267;48.816;9.230;2022-11-24T17:07:05;6.23;;;4.17;;
4508;SDS011;2267;48.816;9.230;2022-11-24T17:09:33;7.53;;;4.20;;
4508;SDS011;2267;48.816;9.230;2022-11-24T17:12:05;11.50;;;5.93;;
4508;SDS011;2267;48.816;9.230;2022-11-24T17:14:32;9.13;;;5.50;;
4508;SDS011;2267;48.816;9.230;2022-11-24T17:17:00;7.47;;;4.70;;
4508;SDS011;2267;48.816;9.230;2022-11-24T17:19:27;8.20;;;5.30;;
4508;SDS011;2267;48.816;9.230;2022-11-24T17:21:57;12.07;;;5.63;;
4508;SDS011;2267;48.816;9.230;2022-11-24T17:24:24;11.53;;;5.43;;
4508;SDS011;2267;48.816;9.230;2022-11-24T17:26:51;7.80;;;5.03;;
4508;SDS011;2267;48.816;9.230;2022-11-24T17:29:18;13.93;;;5.20;;
4508;SDS011;2267;48.816;9.230;2022-11-24T17:31:45;13.57;;;5.50;;
4508;SDS011;2267;48.816;9.230;2022-11-24T17:34:16;8.87;;;4.63;;
4508;SDS011;2267;48.816;9.230;2022-11-24T17:36:43;9.80;;;6.00;;